Terminal Aerodrome Forecast
Issued by NWS

Home | Current Version | Previous Version | Text Only | Print | Product List | Glossary On
Versions: 1 2 3 4 5 6 7 8 9 10 11 12 13 14 15 16 17 18 19 20 21 22 23 24 25
000
FTUS41 KBTV 201700
TAFPBG
TAF
KPBG 201735Z 2018/2118 15009KT P6SM SCT050
     FM210200 VRB03KT P6SM VCSH SCT025 BKN060
     FM210700 VRB03KT P6SM VCSH OVC030
     FM211300 14006KT P6SM -SHRA OVC035=

USA.gov is the U.S. government's official web portal to all federal, state and local government web resources and services.